sensor_id;sensor_type;location;lat;lon;timestamp;P1;durP1;ratioP1;P2;durP2;ratioP2
12308;SDS011;6217;48.150;17.142;2023-06-22T00:03:36;12.73;;;3.45;;
12308;SDS011;6217;48.150;17.142;2023-06-22T00:07:42;10.63;;;3.63;;
12308;SDS011;6217;48.150;17.142;2023-06-22T00:11:49;8.45;;;3.00;;
12308;SDS011;6217;48.150;17.142;2023-06-22T00:15:55;12.95;;;4.65;;
12308;SDS011;6217;48.150;17.142;2023-06-22T00:20:01;7.63;;;4.03;;
12308;SDS011;6217;48.150;17.142;2023-06-22T00:24:11;17.15;;;4.88;;
12308;SDS011;6217;48.150;17.142;2023-06-22T00:28:17;10.55;;;4.70;;
12308;SDS011;6217;48.150;17.142;2023-06-22T00:32:23;10.23;;;4.60;;
12308;SDS011;6217;48.150;17.142;2023-06-22T00:36:29;9.48;;;5.18;;
12308;SDS011;6217;48.150;17.142;2023-06-22T00:40:36;11.05;;;3.58;;
12308;SDS011;6217;48.150;17.142;2023-06-22T00:44:42;11.45;;;4.43;;
12308;SDS011;6217;48.150;17.142;2023-06-22T00:48:50;5.60;;;3.25;;
12308;SDS011;6217;48.150;17.142;2023-06-22T00:52:58;7.10;;;4.15;;
12308;SDS011;6217;48.150;17.142;2023-06-22T00:57:17;12.23;;;4.32;;
12308;SDS011;6217;48.150;17.142;2023-06-22T01:01:24;11.00;;;6.55;;
12308;SDS011;6217;48.150;17.142;2023-06-22T01:05:30;9.93;;;5.32;;
12308;SDS011;6217;48.150;17.142;2023-06-22T01:09:44;14.55;;;7.05;;
12308;SDS011;6217;48.150;17.142;2023-06-22T01:14:19;9.90;;;6.78;;
12308;SDS011;6217;48.150;17.142;2023-06-22T01:18:36;11.30;;;5.77;;
12308;SDS011;6217;48.150;17.142;2023-06-22T01:23:07;16.13;;;7.10;;
12308;SDS011;6217;48.150;17.142;2023-06-22T01:28:03;5.57;;;4.88;;
12308;SDS011;6217;48.150;17.142;2023-06-22T01:32:41;8.80;;;4.75;;
12308;SDS011;6217;48.150;17.142;2023-06-22T01:36:48;10.70;;;5.38;;
12308;SDS011;6217;48.150;17.142;2023-06-22T01:40:57;11.18;;;6.43;;
12308;SDS011;6217;48.150;17.142;2023-06-22T01:45:04;9.95;;;4.47;;
12308;SDS011;6217;48.150;17.142;2023-06-22T01:49:13;9.13;;;5.75;;
12308;SDS011;6217;48.150;17.142;2023-06-22T01:53:23;11.48;;;6.47;;
12308;SDS011;6217;48.150;17.142;2023-06-22T01:57:31;8.75;;;5.35;;
12308;SDS011;6217;48.150;17.142;2023-06-22T02:01:50;12.90;;;6.68;;
12308;SDS011;6217;48.150;17.142;2023-06-22T02:06:06;10.25;;;6.20;;
12308;SDS011;6217;48.150;17.142;2023-06-22T02:10:19;8.48;;;4.90;;
12308;SDS011;6217;48.150;17.142;2023-06-22T02:14:26;8.00;;;4.80;;
12308;SDS011;6217;48.150;17.142;2023-06-22T02:18:33;9.15;;;4.45;;
12308;SDS011;6217;48.150;17.142;2023-06-22T02:22:41;10.20;;;5.35;;
12308;SDS011;6217;48.150;17.142;2023-06-22T02:26:50;7.68;;;4.53;;
12308;SDS011;6217;48.150;17.142;2023-06-22T02:30:56;8.63;;;4.80;;
12308;SDS011;6217;48.150;17.142;2023-06-22T02:35:02;8.82;;;4.75;;
12308;SDS011;6217;48.150;17.142;2023-06-22T02:39:09;8.73;;;5.28;;
12308;SDS011;6217;48.150;17.142;2023-06-22T02:43:16;8.90;;;4.97;;
12308;SDS011;6217;48.150;17.142;2023-06-22T02:47:23;13.93;;;5.22;;
12308;SDS011;6217;48.150;17.142;2023-06-22T02:51:30;8.27;;;4.53;;
12308;SDS011;6217;48.150;17.142;2023-06-22T02:55:39;9.32;;;6.38;;
12308;SDS011;6217;48.150;17.142;2023-06-22T02:59:45;10.90;;;4.85;;
12308;SDS011;6217;48.150;17.142;2023-06-22T03:03:52;7.10;;;4.88;;
12308;SDS011;6217;48.150;17.142;2023-06-22T03:07:58;7.70;;;4.75;;
12308;SDS011;6217;48.150;17.142;2023-06-22T03:12:05;12.10;;;4.28;;
12308;SDS011;6217;48.150;17.142;2023-06-22T03:16:20;6.65;;;3.90;;
12308;SDS011;6217;48.150;17.142;2023-06-22T03:20:27;6.43;;;3.25;;
12308;SDS011;6217;48.150;17.142;2023-06-22T03:24:38;7.65;;;3.50;;
12308;SDS011;6217;48.150;17.142;2023-06-22T03:28:45;8.15;;;4.13;;
12308;SDS011;6217;48.150;17.142;2023-06-22T03:32:51;6.85;;;4.28;;
12308;SDS011;6217;48.150;17.142;2023-06-22T03:36:57;6.25;;;3.72;;
12308;SDS011;6217;48.150;17.142;2023-06-22T03:41:03;5.47;;;2.92;;
12308;SDS011;6217;48.150;17.142;2023-06-22T03:45:09;10.82;;;4.45;;
12308;SDS011;6217;48.150;17.142;2023-06-22T03:49:16;6.55;;;4.55;;
12308;SDS011;6217;48.150;17.142;2023-06-22T03:53:22;8.48;;;5.22;;
12308;SDS011;6217;48.150;17.142;2023-06-22T03:57:28;13.35;;;5.15;;
12308;SDS011;6217;48.150;17.142;2023-06-22T04:01:34;14.95;;;6.45;;
12308;SDS011;6217;48.150;17.142;2023-06-22T04:05:40;10.02;;;6.07;;
12308;SDS011;6217;48.150;17.142;2023-06-22T04:09:46;11.38;;;6.22;;
12308;SDS011;6217;48.150;17.142;2023-06-22T04:13:52;11.68;;;6.45;;
12308;SDS011;6217;48.150;17.142;2023-06-22T04:17:59;17.67;;;7.75;;
12308;SDS011;6217;48.150;17.142;2023-06-22T04:22:04;12.95;;;8.20;;
12308;SDS011;6217;48.150;17.142;2023-06-22T04:26:12;14.50;;;7.63;;
12308;SDS011;6217;48.150;17.142;2023-06-22T04:30:19;15.52;;;8.13;;
12308;SDS011;6217;48.150;17.142;2023-06-22T04:34:25;10.25;;;6.68;;
12308;SDS011;6217;48.150;17.142;2023-06-22T04:38:33;13.75;;;7.90;;
12308;SDS011;6217;48.150;17.142;2023-06-22T04:42:39;10.60;;;7.97;;
12308;SDS011;6217;48.150;17.142;2023-06-22T04:46:45;14.30;;;8.77;;
12308;SDS011;6217;48.150;17.142;2023-06-22T04:50:51;24.67;;;11.13;;
12308;SDS011;6217;48.150;17.142;2023-06-22T04:54:57;11.52;;;9.55;;
12308;SDS011;6217;48.150;17.142;2023-06-22T04:59:05;13.50;;;6.95;;
12308;SDS011;6217;48.150;17.142;2023-06-22T05:03:11;13.45;;;8.90;;
12308;SDS011;6217;48.150;17.142;2023-06-22T05:07:17;11.00;;;8.70;;
12308;SDS011;6217;48.150;17.142;2023-06-22T05:11:24;9.13;;;7.05;;
12308;SDS011;6217;48.150;17.142;2023-06-22T05:15:33;15.63;;;7.28;;
12308;SDS011;6217;48.150;17.142;2023-06-22T05:19:45;8.63;;;6.18;;
12308;SDS011;6217;48.150;17.142;2023-06-22T05:23:53;9.23;;;5.10;;
12308;SDS011;6217;48.150;17.142;2023-06-22T05:27:59;11.23;;;3.70;;
12308;SDS011;6217;48.150;17.142;2023-06-22T05:32:06;10.15;;;3.90;;
12308;SDS011;6217;48.150;17.142;2023-06-22T05:36:12;12.35;;;2.92;;
12308;SDS011;6217;48.150;17.142;2023-06-22T05:40:18;6.10;;;2.47;;
12308;SDS011;6217;48.150;17.142;2023-06-22T05:44:24;8.35;;;1.88;;
12308;SDS011;6217;48.150;17.142;2023-06-22T05:48:30;5.80;;;2.28;;
12308;SDS011;6217;48.150;17.142;2023-06-22T05:52:36;5.47;;;2.15;;
12308;SDS011;6217;48.150;17.142;2023-06-22T05:56:42;7.43;;;2.65;;
12308;SDS011;6217;48.150;17.142;2023-06-22T06:00:48;6.65;;;2.80;;
12308;SDS011;6217;48.150;17.142;2023-06-22T06:04:54;6.57;;;3.13;;
12308;SDS011;6217;48.150;17.142;2023-06-22T06:09:00;5.47;;;3.28;;
12308;SDS011;6217;48.150;17.142;2023-06-22T06:13:06;5.95;;;3.15;;
12308;SDS011;6217;48.150;17.142;2023-06-22T06:17:12;4.97;;;2.83;;
12308;SDS011;6217;48.150;17.142;2023-06-22T06:21:18;7.35;;;3.08;;
12308;SDS011;6217;48.150;17.142;2023-06-22T06:25:24;7.35;;;3.55;;
12308;SDS011;6217;48.150;17.142;2023-06-22T06:29:34;9.55;;;3.45;;
12308;SDS011;6217;48.150;17.142;2023-06-22T06:33:39;9.75;;;2.38;;
12308;SDS011;6217;48.150;17.142;2023-06-22T06:37:47;8.25;;;2.78;;
12308;SDS011;6217;48.150;17.142;2023-06-22T06:41:54;6.00;;;2.72;;
12308;SDS011;6217;48.150;17.142;2023-06-22T06:46:00;8.63;;;3.60;;
12308;SDS011;6217;48.150;17.142;2023-06-22T06:50:08;5.45;;;2.72;;
12308;SDS011;6217;48.150;17.142;2023-06-22T06:54:15;8.73;;;2.70;;
12308;SDS011;6217;48.150;17.142;2023-06-22T06:58:21;3.65;;;2.80;;
12308;SDS011;6217;48.150;17.142;2023-06-22T07:02:28;7.93;;;2.63;;
12308;SDS011;6217;48.150;17.142;2023-06-22T07:06:34;7.38;;;2.75;;
12308;SDS011;6217;48.150;17.142;2023-06-22T07:10:40;8.48;;;2.53;;
12308;SDS011;6217;48.150;17.142;2023-06-22T07:14:46;8.35;;;2.53;;
12308;SDS011;6217;48.150;17.142;2023-06-22T07:18:52;7.72;;;3.35;;
12308;SDS011;6217;48.150;17.142;2023-06-22T07:22:58;21.05;;;3.97;;
12308;SDS011;6217;48.150;17.142;2023-06-22T07:27:04;9.07;;;3.58;;
12308;SDS011;6217;48.150;17.142;2023-06-22T07:31:11;7.85;;;3.83;;
12308;SDS011;6217;48.150;17.142;2023-06-22T07:35:17;6.30;;;3.40;;
12308;SDS011;6217;48.150;17.142;2023-06-22T07:39:24;11.32;;;3.13;;
12308;SDS011;6217;48.150;17.142;2023-06-22T07:43:31;7.63;;;2.92;;
12308;SDS011;6217;48.150;17.142;2023-06-22T07:47:39;13.70;;;4.82;;
12308;SDS011;6217;48.150;17.142;2023-06-22T07:51:45;10.52;;;3.13;;
12308;SDS011;6217;48.150;17.142;2023-06-22T07:55:51;13.25;;;2.90;;
12308;SDS011;6217;48.150;17.142;2023-06-22T07:59:57;6.68;;;2.28;;
12308;SDS011;6217;48.150;17.142;2023-06-22T08:04:04;12.18;;;4.05;;
12308;SDS011;6217;48.150;17.142;2023-06-22T08:08:20;6.40;;;3.33;;
12308;SDS011;6217;48.150;17.142;2023-06-22T08:12:26;12.18;;;4.68;;
12308;SDS011;6217;48.150;17.142;2023-06-22T08:16:32;10.25;;;3.42;;
12308;SDS011;6217;48.150;17.142;2023-06-22T08:20:38;8.10;;;3.55;;
12308;SDS011;6217;48.150;17.142;2023-06-22T08:24:44;9.60;;;2.67;;
12308;SDS011;6217;48.150;17.142;2023-06-22T08:28:50;6.63;;;3.22;;
12308;SDS011;6217;48.150;17.142;2023-06-22T08:32:56;7.93;;;2.80;;
12308;SDS011;6217;48.150;17.142;2023-06-22T08:37:02;9.02;;;3.03;;
12308;SDS011;6217;48.150;17.142;2023-06-22T08:41:11;5.25;;;2.67;;
12308;SDS011;6217;48.150;17.142;2023-06-22T08:45:17;7.70;;;3.15;;
12308;SDS011;6217;48.150;17.142;2023-06-22T08:49:23;4.95;;;2.22;;
12308;SDS011;6217;48.150;17.142;2023-06-22T08:53:29;5.68;;;3.08;;
12308;SDS011;6217;48.150;17.142;2023-06-22T08:57:35;8.02;;;2.55;;
12308;SDS011;6217;48.150;17.142;2023-06-22T09:01:43;9.65;;;3.13;;
12308;SDS011;6217;48.150;17.142;2023-06-22T09:05:53;6.82;;;2.30;;
12308;SDS011;6217;48.150;17.142;2023-06-22T09:09:59;6.50;;;2.53;;
12308;SDS011;6217;48.150;17.142;2023-06-22T09:14:05;7.00;;;2.28;;
12308;SDS011;6217;48.150;17.142;2023-06-22T09:18:12;8.90;;;2.70;;
12308;SDS011;6217;48.150;17.142;2023-06-22T09:22:19;6.25;;;2.45;;
12308;SDS011;6217;48.150;17.142;2023-06-22T09:26:25;6.82;;;2.30;;
12308;SDS011;6217;48.150;17.142;2023-06-22T09:30:31;6.63;;;2.30;;
12308;SDS011;6217;48.150;17.142;2023-06-22T09:34:37;7.07;;;2.75;;
12308;SDS011;6217;48.150;17.142;2023-06-22T09:38:43;7.38;;;2.58;;
12308;SDS011;6217;48.150;17.142;2023-06-22T09:42:49;4.15;;;2.33;;
12308;SDS011;6217;48.150;17.142;2023-06-22T09:46:54;5.13;;;2.38;;
12308;SDS011;6217;48.150;17.142;2023-06-22T09:51:00;16.50;;;2.63;;
12308;SDS011;6217;48.150;17.142;2023-06-22T09:55:06;9.43;;;2.42;;
12308;SDS011;6217;48.150;17.142;2023-06-22T09:59:13;6.88;;;2.10;;
12308;SDS011;6217;48.150;17.142;2023-06-22T10:03:19;3.35;;;2.35;;
12308;SDS011;6217;48.150;17.142;2023-06-22T10:07:25;5.70;;;2.28;;
12308;SDS011;6217;48.150;17.142;2023-06-22T10:11:31;7.15;;;2.58;;
12308;SDS011;6217;48.150;17.142;2023-06-22T10:15:37;4.82;;;2.42;;
12308;SDS011;6217;48.150;17.142;2023-06-22T10:19:44;9.35;;;3.00;;
12308;SDS011;6217;48.150;17.142;2023-06-22T10:23:50;13.70;;;2.55;;
12308;SDS011;6217;48.150;17.142;2023-06-22T10:27:56;6.78;;;2.15;;
12308;SDS011;6217;48.150;17.142;2023-06-22T10:32:02;4.93;;;2.22;;
12308;SDS011;6217;48.150;17.142;2023-06-22T10:36:08;8.88;;;2.47;;
12308;SDS011;6217;48.150;17.142;2023-06-22T10:40:16;5.78;;;2.15;;
12308;SDS011;6217;48.150;17.142;2023-06-22T10:44:23;7.03;;;2.78;;
12308;SDS011;6217;48.150;17.142;2023-06-22T10:48:29;7.20;;;3.22;;
12308;SDS011;6217;48.150;17.142;2023-06-22T10:52:35;5.80;;;2.17;;
12308;SDS011;6217;48.150;17.142;2023-06-22T10:56:41;6.93;;;2.30;;
12308;SDS011;6217;48.150;17.142;2023-06-22T11:00:47;7.90;;;2.33;;
12308;SDS011;6217;48.150;17.142;2023-06-22T11:04:53;4.63;;;2.05;;
12308;SDS011;6217;48.150;17.142;2023-06-22T11:08:59;3.88;;;2.05;;
12308;SDS011;6217;48.150;17.142;2023-06-22T11:13:05;6.35;;;2.00;;
12308;SDS011;6217;48.150;17.142;2023-06-22T11:17:14;3.05;;;1.95;;
12308;SDS011;6217;48.150;17.142;2023-06-22T11:21:20;6.57;;;2.30;;
12308;SDS011;6217;48.150;17.142;2023-06-22T11:25:26;8.68;;;2.30;;
12308;SDS011;6217;48.150;17.142;2023-06-22T11:29:33;6.25;;;2.63;;
12308;SDS011;6217;48.150;17.142;2023-06-22T11:33:39;7.75;;;2.03;;
12308;SDS011;6217;48.150;17.142;2023-06-22T11:37:45;4.28;;;2.67;;
12308;SDS011;6217;48.150;17.142;2023-06-22T11:41:51;8.75;;;2.28;;
12308;SDS011;6217;48.150;17.142;2023-06-22T11:45:58;13.57;;;5.00;;
12308;SDS011;6217;48.150;17.142;2023-06-22T11:50:04;7.03;;;2.53;;
12308;SDS011;6217;48.150;17.142;2023-06-22T11:54:11;9.32;;;3.13;;
12308;SDS011;6217;48.150;17.142;2023-06-22T11:58:17;9.95;;;3.30;;
12308;SDS011;6217;48.150;17.142;2023-06-22T12:02:22;9.80;;;3.22;;
12308;SDS011;6217;48.150;17.142;2023-06-22T12:06:28;4.60;;;2.28;;
12308;SDS011;6217;48.150;17.142;2023-06-22T12:10:34;9.95;;;3.17;;
12308;SDS011;6217;48.150;17.142;2023-06-22T12:14:40;10.65;;;7.00;;
12308;SDS011;6217;48.150;17.142;2023-06-22T12:18:46;9.15;;;7.90;;
12308;SDS011;6217;48.150;17.142;2023-06-22T12:22:52;7.38;;;3.35;;
12308;SDS011;6217;48.150;17.142;2023-06-22T12:27:01;7.63;;;4.90;;
12308;SDS011;6217;48.150;17.142;2023-06-22T12:31:08;9.98;;;2.90;;
12308;SDS011;6217;48.150;17.142;2023-06-22T12:35:14;7.68;;;3.05;;
12308;SDS011;6217;48.150;17.142;2023-06-22T12:39:20;5.35;;;3.58;;
12308;SDS011;6217;48.150;17.142;2023-06-22T12:43:26;9.85;;;3.58;;
12308;SDS011;6217;48.150;17.142;2023-06-22T12:47:32;8.00;;;3.45;;
12308;SDS011;6217;48.150;17.142;2023-06-22T12:51:41;8.57;;;3.83;;
12308;SDS011;6217;48.150;17.142;2023-06-22T12:55:48;7.53;;;2.80;;
12308;SDS011;6217;48.150;17.142;2023-06-22T12:59:54;9.65;;;4.47;;
12308;SDS011;6217;48.150;17.142;2023-06-22T13:04:00;10.32;;;2.97;;
12308;SDS011;6217;48.150;17.142;2023-06-22T13:08:06;5.53;;;2.90;;
12308;SDS011;6217;48.150;17.142;2023-06-22T13:12:13;8.77;;;3.90;;
12308;SDS011;6217;48.150;17.142;2023-06-22T13:16:19;3.92;;;2.85;;
12308;SDS011;6217;48.150;17.142;2023-06-22T13:20:24;3.67;;;2.33;;
12308;SDS011;6217;48.150;17.142;2023-06-22T13:24:30;9.05;;;4.07;;
12308;SDS011;6217;48.150;17.142;2023-06-22T13:28:36;7.75;;;3.60;;
12308;SDS011;6217;48.150;17.142;2023-06-22T13:32:42;5.80;;;2.33;;
12308;SDS011;6217;48.150;17.142;2023-06-22T13:36:48;7.03;;;2.53;;
12308;SDS011;6217;48.150;17.142;2023-06-22T13:40:54;8.85;;;3.00;;
12308;SDS011;6217;48.150;17.142;2023-06-22T13:45:03;11.65;;;4.45;;
12308;SDS011;6217;48.150;17.142;2023-06-22T13:49:10;9.27;;;3.22;;
12308;SDS011;6217;48.150;17.142;2023-06-22T13:53:16;12.10;;;4.15;;
12308;SDS011;6217;48.150;17.142;2023-06-22T13:57:22;11.02;;;2.92;;
12308;SDS011;6217;48.150;17.142;2023-06-22T14:01:28;8.50;;;2.60;;
12308;SDS011;6217;48.150;17.142;2023-06-22T14:05:33;5.38;;;3.38;;
12308;SDS011;6217;48.150;17.142;2023-06-22T14:09:39;11.10;;;2.95;;
12308;SDS011;6217;48.150;17.142;2023-06-22T14:13:45;11.02;;;2.80;;
12308;SDS011;6217;48.150;17.142;2023-06-22T14:17:51;9.30;;;3.25;;
12308;SDS011;6217;48.150;17.142;2023-06-22T14:21:57;10.90;;;4.20;;
12308;SDS011;6217;48.150;17.142;2023-06-22T14:26:03;10.18;;;3.88;;
12308;SDS011;6217;48.150;17.142;2023-06-22T14:30:09;8.40;;;3.22;;
12308;SDS011;6217;48.150;17.142;2023-06-22T14:34:15;4.75;;;2.88;;
12308;SDS011;6217;48.150;17.142;2023-06-22T14:38:21;14.82;;;3.17;;
12308;SDS011;6217;48.150;17.142;2023-06-22T14:42:27;7.68;;;3.22;;
12308;SDS011;6217;48.150;17.142;2023-06-22T14:46:36;5.88;;;4.15;;
12308;SDS011;6217;48.150;17.142;2023-06-22T14:50:42;6.00;;;3.28;;
12308;SDS011;6217;48.150;17.142;2023-06-22T14:54:48;15.20;;;4.05;;
12308;SDS011;6217;48.150;17.142;2023-06-22T14:58:56;9.68;;;2.88;;
12308;SDS011;6217;48.150;17.142;2023-06-22T15:03:02;8.13;;;2.75;;
12308;SDS011;6217;48.150;17.142;2023-06-22T15:07:10;6.13;;;2.83;;
12308;SDS011;6217;48.150;17.142;2023-06-22T15:11:16;12.43;;;3.25;;
12308;SDS011;6217;48.150;17.142;2023-06-22T15:15:22;9.38;;;3.90;;
12308;SDS011;6217;48.150;17.142;2023-06-22T15:19:28;14.25;;;4.05;;
12308;SDS011;6217;48.150;17.142;2023-06-22T15:23:34;8.40;;;2.83;;
12308;SDS011;6217;48.150;17.142;2023-06-22T15:27:40;9.02;;;3.63;;
12308;SDS011;6217;48.150;17.142;2023-06-22T15:31:46;5.57;;;4.03;;
12308;SDS011;6217;48.150;17.142;2023-06-22T15:35:52;13.27;;;3.85;;
12308;SDS011;6217;48.150;17.142;2023-06-22T15:39:58;7.47;;;5.10;;
12308;SDS011;6217;48.150;17.142;2023-06-22T15:44:04;12.50;;;4.13;;
12308;SDS011;6217;48.150;17.142;2023-06-22T15:48:10;7.07;;;3.22;;
12308;SDS011;6217;48.150;17.142;2023-06-22T15:52:15;7.60;;;3.75;;
12308;SDS011;6217;48.150;17.142;2023-06-22T15:56:24;10.80;;;3.78;;
12308;SDS011;6217;48.150;17.142;2023-06-22T16:00:30;7.15;;;4.72;;
12308;SDS011;6217;48.150;17.142;2023-06-22T16:04:36;9.10;;;5.03;;
12308;SDS011;6217;48.150;17.142;2023-06-22T16:08:41;13.70;;;4.82;;
12308;SDS011;6217;48.150;17.142;2023-06-22T16:12:47;9.80;;;4.10;;
12308;SDS011;6217;48.150;17.142;2023-06-22T16:16:54;5.88;;;3.60;;
12308;SDS011;6217;48.150;17.142;2023-06-22T16:21:00;8.68;;;4.07;;
12308;SDS011;6217;48.150;17.142;2023-06-22T16:25:06;5.35;;;3.47;;
12308;SDS011;6217;48.150;17.142;2023-06-22T16:29:13;7.30;;;4.38;;
12308;SDS011;6217;48.150;17.142;2023-06-22T16:33:19;6.40;;;4.25;;
12308;SDS011;6217;48.150;17.142;2023-06-22T16:37:25;8.82;;;4.75;;
12308;SDS011;6217;48.150;17.142;2023-06-22T16:41:31;8.15;;;4.57;;
12308;SDS011;6217;48.150;17.142;2023-06-22T16:45:39;15.02;;;6.35;;
12308;SDS011;6217;48.150;17.142;2023-06-22T16:49:45;6.38;;;4.00;;
12308;SDS011;6217;48.150;17.142;2023-06-22T16:53:54;9.95;;;4.22;;
12308;SDS011;6217;48.150;17.142;2023-06-22T16:58:01;8.30;;;4.22;;
12308;SDS011;6217;48.150;17.142;2023-06-22T17:02:12;12.80;;;4.28;;
12308;SDS011;6217;48.150;17.142;2023-06-22T17:06:24;8.63;;;4.32;;
12308;SDS011;6217;48.150;17.142;2023-06-22T17:10:33;11.05;;;4.55;;
12308;SDS011;6217;48.150;17.142;2023-06-22T17:14:40;7.82;;;3.88;;
12308;SDS011;6217;48.150;17.142;2023-06-22T17:18:51;11.52;;;4.30;;
12308;SDS011;6217;48.150;17.142;2023-06-22T17:22:59;10.40;;;4.00;;
12308;SDS011;6217;48.150;17.142;2023-06-22T17:27:05;8.05;;;3.05;;
12308;SDS011;6217;48.150;17.142;2023-06-22T17:31:12;5.90;;;3.08;;
12308;SDS011;6217;48.150;17.142;2023-06-22T17:35:17;8.23;;;3.70;;
12308;SDS011;6217;48.150;17.142;2023-06-22T17:39:24;7.80;;;4.45;;
12308;SDS011;6217;48.150;17.142;2023-06-22T17:47:51;7.47;;;4.22;;
12308;SDS011;6217;48.150;17.142;2023-06-22T17:51:59;9.52;;;4.60;;
12308;SDS011;6217;48.150;17.142;2023-06-22T17:56:06;6.35;;;4.15;;
12308;SDS011;6217;48.150;17.142;2023-06-22T18:00:12;10.15;;;3.10;;
12308;SDS011;6217;48.150;17.142;2023-06-22T18:04:18;7.68;;;4.18;;
12308;SDS011;6217;48.150;17.142;2023-06-22T18:08:25;13.57;;;4.95;;
12308;SDS011;6217;48.150;17.142;2023-06-22T18:12:32;13.88;;;3.75;;
12308;SDS011;6217;48.150;17.142;2023-06-22T18:16:39;4.97;;;3.17;;
12308;SDS011;6217;48.150;17.142;2023-06-22T18:24:55;8.73;;;5.10;;
12308;SDS011;6217;48.150;17.142;2023-06-22T18:29:01;11.70;;;3.80;;
12308;SDS011;6217;48.150;17.142;2023-06-22T18:33:09;12.20;;;4.05;;
12308;SDS011;6217;48.150;17.142;2023-06-22T18:37:14;7.85;;;3.97;;
12308;SDS011;6217;48.150;17.142;2023-06-22T18:41:22;7.07;;;4.05;;
12308;SDS011;6217;48.150;17.142;2023-06-22T18:45:30;11.50;;;3.50;;
12308;SDS011;6217;48.150;17.142;2023-06-22T18:53:46;10.43;;;4.00;;
12308;SDS011;6217;48.150;17.142;2023-06-22T18:58:12;7.72;;;4.47;;
12308;SDS011;6217;48.150;17.142;2023-06-22T19:11:10;9.77;;;3.45;;
12308;SDS011;6217;48.150;17.142;2023-06-22T19:15:17;8.57;;;3.70;;
12308;SDS011;6217;48.150;17.142;2023-06-22T19:19:25;9.25;;;4.45;;
12308;SDS011;6217;48.150;17.142;2023-06-22T19:23:34;12.10;;;3.95;;
12308;SDS011;6217;48.150;17.142;2023-06-22T19:27:42;15.98;;;3.67;;
12308;SDS011;6217;48.150;17.142;2023-06-22T19:31:48;13.00;;;4.03;;
12308;SDS011;6217;48.150;17.142;2023-06-22T19:35:55;8.38;;;4.43;;
12308;SDS011;6217;48.150;17.142;2023-06-22T19:40:04;8.52;;;4.63;;
12308;SDS011;6217;48.150;17.142;2023-06-22T19:44:17;19.52;;;5.13;;
12308;SDS011;6217;48.150;17.142;2023-06-22T19:48:24;5.50;;;3.78;;
12308;SDS011;6217;48.150;17.142;2023-06-22T19:52:32;11.07;;;3.83;;
12308;SDS011;6217;48.150;17.142;2023-06-22T19:56:45;12.73;;;4.47;;
12308;SDS011;6217;48.150;17.142;2023-06-22T20:00:54;8.65;;;3.38;;
12308;SDS011;6217;48.150;17.142;2023-06-22T20:05:07;7.53;;;3.93;;
12308;SDS011;6217;48.150;17.142;2023-06-22T20:09:14;7.88;;;4.60;;
12308;SDS011;6217;48.150;17.142;2023-06-22T20:13:20;8.75;;;4.63;;
12308;SDS011;6217;48.150;17.142;2023-06-22T20:17:26;9.95;;;4.68;;
12308;SDS011;6217;48.150;17.142;2023-06-22T20:21:32;8.07;;;3.25;;
12308;SDS011;6217;48.150;17.142;2023-06-22T20:25:39;7.53;;;5.22;;
12308;SDS011;6217;48.150;17.142;2023-06-22T20:29:48;7.40;;;4.43;;
12308;SDS011;6217;48.150;17.142;2023-06-22T20:34:03;10.68;;;4.20;;
12308;SDS011;6217;48.150;17.142;2023-06-22T20:38:09;10.23;;;4.75;;
12308;SDS011;6217;48.150;17.142;2023-06-22T20:42:15;9.55;;;4.88;;
12308;SDS011;6217;48.150;17.142;2023-06-22T20:46:22;12.30;;;5.15;;
12308;SDS011;6217;48.150;17.142;2023-06-22T20:50:28;12.13;;;5.38;;
12308;SDS011;6217;48.150;17.142;2023-06-22T20:54:38;7.88;;;5.63;;
12308;SDS011;6217;48.150;17.142;2023-06-22T20:58:44;8.85;;;5.93;;
12308;SDS011;6217;48.150;17.142;2023-06-22T21:02:50;12.07;;;6.40;;
12308;SDS011;6217;48.150;17.142;2023-06-22T21:06:57;6.25;;;5.72;;
12308;SDS011;6217;48.150;17.142;2023-06-22T21:11:03;21.25;;;7.60;;
12308;SDS011;6217;48.150;17.142;2023-06-22T21:15:10;15.60;;;7.35;;
12308;SDS011;6217;48.150;17.142;2023-06-22T21:19:16;14.02;;;6.93;;
12308;SDS011;6217;48.150;17.142;2023-06-22T21:23:22;10.82;;;7.47;;
12308;SDS011;6217;48.150;17.142;2023-06-22T21:27:28;16.35;;;8.48;;
12308;SDS011;6217;48.150;17.142;2023-06-22T21:31:41;11.55;;;6.65;;
12308;SDS011;6217;48.150;17.142;2023-06-22T21:35:50;11.10;;;7.78;;
12308;SDS011;6217;48.150;17.142;2023-06-22T21:39:56;10.95;;;7.03;;
12308;SDS011;6217;48.150;17.142;2023-06-22T21:44:02;11.20;;;8.23;;
12308;SDS011;6217;48.150;17.142;2023-06-22T21:48:09;14.20;;;7.85;;
12308;SDS011;6217;48.150;17.142;2023-06-22T21:52:17;12.48;;;8.30;;
12308;SDS011;6217;48.150;17.142;2023-06-22T21:56:23;12.57;;;7.63;;
12308;SDS011;6217;48.150;17.142;2023-06-22T22:00:29;11.55;;;8.70;;
12308;SDS011;6217;48.150;17.142;2023-06-22T22:04:39;14.07;;;8.90;;
12308;SDS011;6217;48.150;17.142;2023-06-22T22:08:46;12.95;;;8.30;;
12308;SDS011;6217;48.150;17.142;2023-06-22T22:12:55;15.32;;;9.40;;
12308;SDS011;6217;48.150;17.142;2023-06-22T22:17:01;13.43;;;8.93;;
12308;SDS011;6217;48.150;17.142;2023-06-22T22:21:11;13.37;;;7.67;;
12308;SDS011;6217;48.150;17.142;2023-06-22T22:25:29;10.63;;;8.05;;
12308;SDS011;6217;48.150;17.142;2023-06-22T22:29:36;13.38;;;9.57;;
12308;SDS011;6217;48.150;17.142;2023-06-22T22:33:43;11.35;;;8.77;;
12308;SDS011;6217;48.150;17.142;2023-06-22T22:37:50;20.23;;;11.93;;
12308;SDS011;6217;48.150;17.142;2023-06-22T22:41:56;16.48;;;10.85;;
12308;SDS011;6217;48.150;17.142;2023-06-22T22:46:02;11.90;;;9.45;;
12308;SDS011;6217;48.150;17.142;2023-06-22T22:50:08;13.65;;;10.00;;
12308;SDS011;6217;48.150;17.142;2023-06-22T22:54:14;15.15;;;12.25;;
12308;SDS011;6217;48.150;17.142;2023-06-22T22:58:20;14.77;;;11.63;;
12308;SDS011;6217;48.150;17.142;2023-06-22T23:02:26;13.30;;;11.88;;
12308;SDS011;6217;48.150;17.142;2023-06-22T23:06:32;16.48;;;11.15;;
12308;SDS011;6217;48.150;17.142;2023-06-22T23:10:37;16.05;;;12.45;;
12308;SDS011;6217;48.150;17.142;2023-06-22T23:14:43;13.65;;;12.23;;
12308;SDS011;6217;48.150;17.142;2023-06-22T23:18:49;14.38;;;12.95;;
12308;SDS011;6217;48.150;17.142;2023-06-22T23:22:56;18.55;;;12.27;;
12308;SDS011;6217;48.150;17.142;2023-06-22T23:27:02;18.52;;;13.00;;
12308;SDS011;6217;48.150;17.142;2023-06-22T23:31:09;15.07;;;13.50;;
12308;SDS011;6217;48.150;17.142;2023-06-22T23:35:15;16.13;;;12.70;;
12308;SDS011;6217;48.150;17.142;2023-06-22T23:39:21;21.02;;;14.27;;
12308;SDS011;6217;48.150;17.142;2023-06-22T23:43:27;18.60;;;13.30;;
12308;SDS011;6217;48.150;17.142;2023-06-22T23:47:33;17.13;;;12.88;;
12308;SDS011;6217;48.150;17.142;2023-06-22T23:51:40;16.20;;;13.65;;
12308;SDS011;6217;48.150;17.142;2023-06-22T23:55:46;17.85;;;13.93;;
12308;SDS011;6217;48.150;17.142;2023-06-22T23:59:52;17.58;;;12.77;;
